• Join FlightAware (Why Join?)
  • Login
  • US Flag 
07:22AM EDT


 

Airport Tracker/Info


-or-


 

Live Flight TrackerFlight Track Log ✈ AWE3434 ✈ 20-May-2013 ✈ KPHL - KCMH

Flight Track Log - Related Links

Times and Time Zones

All times are in EDT time to prevent confusion due to time zone crossing. See the AWE3434 flight status page for this flight to view local times or setup timezone preferences in your user account.

Time Position Orientation Groundspeed Altitude Reporting Facility
EDT Latitude Longitude Course Direction KTS MPH feet Rate Location/Type
02:40PM 39.8667 -75.2833 270° West 160 184 700  Level Philadelphia TRACON
02:42PM 39.8456 -75.4539 261° West 236 272 6,400 2,640 Climbing New York Center
02:43PM 39.9124 -75.6926 258° West  Level FlightAware Approximate
02:43PM 39.8497 -75.5514 273° West 267 307 9,600  Level New York Center
02:44PM 39.9000 -75.8099 270° West  Level FlightAware Approximate
02:44PM 39.8597 -75.6683 276° West 298 343 11,700  Level New York Center
02:45PM 39.9000 -75.9290 270° West  Level FlightAware Approximate
02:45PM 39.8717 -75.7775 278° West 331 381 14,000  Level New York Center
02:46PM 39.8828 -75.9108 276° West 344 396 16,800 1,860 Climbing New York Center
02:47PM 39.8922 -76.0253 276° West 349 402 17,700 1,320 Climbing New York Center
02:48PM 39.9067 -76.1697 277° West 354 407 19,500 1,680 Climbing New York Center
02:49PM 39.9106 -76.3053 272° West 367 422 21,200 1,620 Climbing New York Center
02:50PM 39.9161 -76.4519 273° West 392 451 22,900 1,620 Climbing New York Center
02:51PM 39.9217 -76.5986 273° West 404 465 24,500 1,500 Climbing New York Center
02:52PM 39.9286 -76.7508 273° West 421 484 25,900 1,320 Climbing New York Center
02:53PM 39.9353 -76.9058 273° West 426 490 27,200 1,200 Climbing New York Center
02:54PM 39.9414 -77.0636 273° West 431 496 28,300 1,320 Climbing New York Center
02:55PM 39.9475 -77.2211 273° West 442 509 29,800 540 Climbing New York Center
02:57PM 39.9600 -77.5467 273° West 445 512 30,000 60 Climbing Cleveland Center
02:58PM 39.9664 -77.7172 273° West 462 532 30,000  Level Cleveland Center
02:59PM 39.9706 -77.8850 272° West 467 537 30,000  Level Cleveland Center
03:00PM 39.9764 -78.0528 273° West 467 537 30,000  Level Cleveland Center
03:01PM 39.9822 -78.2178 273° West 467 537 30,000  Level Cleveland Center
03:02PM 39.9817 -78.4075 270° West 467 537 30,000  Level Cleveland Center
03:03PM 39.9869 -78.5753 272° West 472 543 30,000  Level Cleveland Center
03:04PM 39.9897 -78.7431 271° West 472 543 30,000  Level Cleveland Center
03:05PM 39.9944 -78.9111 272° West 472 543 30,000  Level Cleveland Center
03:06PM 39.9986 -79.0628 272° West 472 543 30,000  Level Cleveland Center
03:07PM 40.0008 -79.2308 271° West 472 543 30,000  Level Cleveland Center
03:08PM 40.0047 -79.3986 272° West 472 543 30,000  Level Cleveland Center
03:09PM 40.0083 -79.5694 272° West 472 543 30,000  Level Cleveland Center
03:10PM 40.0100 -79.7400 271° West 472 543 30,000  Level Cleveland Center
03:11PM 40.0131 -79.9244 271° West 472 543 30,000  Level Cleveland Center
03:12PM 40.0139 -80.0978 270° West 477 549 30,000  Level Cleveland Center
03:13PM 40.0167 -80.2658 271° West 477 549 30,000  Level Cleveland Center
03:14PM 40.0169 -80.4394 270° West 477 549 30,000 -540 Level Cleveland Center
03:15PM 40.0192 -80.6075 271° West 471 542 29,000 -1,020 Descending Cleveland Center
03:16PM 40.0192 -80.7783 270° West 471 542 28,000 -1,560 Descending Cleveland Center
03:17PM 39.9978 -80.9381 260° West 471 542 25,900 -2,100 Descending Cleveland Center
03:18PM 39.9792 -81.0100 251° West 450 518 24,900 -1,980 Descending Indianapolis Center
03:19PM 39.9500 -81.1625 256° West 438 504 22,900 -1,920 Descending Indianapolis Center
03:20PM 39.9217 -81.3136 256° West 433 498 21,000 -1,980 Descending Indianapolis Center
03:21PM 39.8906 -81.4622 255° West 412 474 18,900 -1,860 Descending Indianapolis Center
03:22PM 39.8636 -81.6017 256° West 396 456 17,200 -1,740 Descending Indianapolis Center
03:23PM 39.8367 -81.7364 255° West 384 442 15,400 -1,560 Descending Indianapolis Center
03:24PM 39.8061 -81.8889 255° West 372 428 14,000 -1,440 Descending Indianapolis Center
03:25PM 39.7797 -82.0172 255° West 367 422 12,500 -1,920 Descending Indianapolis Center
03:25PM 39.7703 -82.0597 254° West 360 414 11,500 -2,160 Descending Indianapolis Center
03:26PM 39.7519 -82.1525 256° West 350 403 10,100 -1,140 Descending Indianapolis Center
03:27PM 39.7336 -82.2483 256° West 279 321 9,600 -1,260 Descending Indianapolis Center
03:28PM 39.7358 -82.3461 272° West 264 304 7,700 -1,860 Descending Indianapolis Center
03:29PM 39.7858 -82.4197 311° West 273 314 5,700 -1,740 Descending Indianapolis Center
03:30PM 39.8358 -82.4842 315° West 272 313 4,400 -1,020 Descending Indianapolis Center
03:31PM 39.9061 -82.5639 319° Northwest 266 306 3,700 -600 Descending Indianapolis Center